createdAt,value
2023-05-14T02:39:29.204Z,79.05
2023-05-14T02:42:03.056Z,79.25
2023-05-14T02:44:33.428Z,78.94
2023-05-14T02:46:59.965Z,78.66
2023-05-14T02:50:00.928Z,78.91
2023-05-14T03:03:29.978Z,78.08
2023-05-14T03:05:57.394Z,78.12
2023-05-14T03:08:40.435Z,78.13
2023-05-14T03:11:19.791Z,78.21
2023-05-14T03:39:06.634Z,78.00
2023-05-14T03:41:33.671Z,78.36
2023-05-14T03:46:46.296Z,78.46
2023-05-14T03:49:16.318Z,78.20
2023-05-14T03:51:44.098Z,78.52
2023-05-14T03:57:04.034Z,78.94
2023-05-14T03:59:34.776Z,79.11
2023-05-14T04:02:03.954Z,79.08
2023-05-14T04:04:30.973Z,79.29
2023-05-14T04:07:00.027Z,79.35
2023-05-14T04:09:26.405Z,79.58
2023-05-14T04:11:53.051Z,79.67
2023-05-14T04:14:19.425Z,79.01
2023-05-14T04:16:46.591Z,79.20
2023-05-14T04:19:13.649Z,79.04
2023-05-14T04:21:40.064Z,79.24
2023-05-14T04:24:06.763Z,79.39
2023-05-14T04:26:33.231Z,79.24
2023-05-14T04:29:00.342Z,79.60
2023-05-14T04:31:27.057Z,79.48
2023-05-14T04:33:53.573Z,79.54
2023-05-14T04:36:20.275Z,79.40
2023-05-14T04:38:48.180Z,79.87
2023-05-14T04:41:14.556Z,79.70
2023-05-14T04:43:41.240Z,79.69
2023-05-14T04:46:07.888Z,79.68
2023-05-14T04:48:35.334Z,79.38
2023-05-14T04:51:02.098Z,79.52
2023-05-14T04:53:28.861Z,79.58
2023-05-14T04:55:55.502Z,79.94
2023-05-14T04:58:21.889Z,79.90
2023-05-14T05:00:48.290Z,80.37
2023-05-14T05:03:14.855Z,79.64
2023-05-14T05:05:41.345Z,79.69
2023-05-14T05:08:07.867Z,79.60
2023-05-14T05:10:34.321Z,79.74
2023-05-14T05:13:03.437Z,79.63
2023-05-14T05:15:30.371Z,80.01
2023-05-14T05:17:57.253Z,79.67
2023-05-14T05:20:25.949Z,79.62
2023-05-14T05:22:53.374Z,79.93
2023-05-14T05:25:22.501Z,79.62
2023-05-14T05:27:49.188Z,80.06
2023-05-14T05:30:16.570Z,79.80
2023-05-14T05:32:43.223Z,79.70
2023-05-14T05:35:10.714Z,79.87
2023-05-14T05:37:37.198Z,80.12
2023-05-14T05:40:04.186Z,79.72
2023-05-14T05:42:30.670Z,79.76
2023-05-14T05:44:57.368Z,78.99
2023-05-14T05:47:24.152Z,79.51
2023-05-14T05:49:51.106Z,78.60
2023-05-14T05:52:17.952Z,79.79
2023-05-14T05:54:44.471Z,78.60
2023-05-14T05:57:13.956Z,80.01
2023-05-14T05:59:40.851Z,79.58
2023-05-14T06:02:07.712Z,80.26
2023-05-14T06:04:34.135Z,79.64
2023-05-14T06:07:00.764Z,79.56
2023-05-14T06:09:28.136Z,80.49
2023-05-14T06:11:54.491Z,80.31
2023-05-14T06:14:20.882Z,81.34
2023-05-14T06:16:47.306Z,80.26
2023-05-14T06:19:13.890Z,79.45
2023-05-14T06:21:40.732Z,79.77
2023-05-14T06:24:07.211Z,78.34
2023-05-14T06:26:33.628Z,78.79
2023-05-14T06:29:00.039Z,77.41
2023-05-14T06:31:26.516Z,77.18
2023-05-14T06:33:54.342Z,77.32
2023-05-14T06:36:21.758Z,75.56
2023-05-14T06:38:48.317Z,75.72
2023-05-14T06:41:14.668Z,76.18
2023-05-14T06:43:41.078Z,76.39
2023-05-14T06:46:07.484Z,77.43
2023-05-14T06:48:33.939Z,77.37
2023-05-14T06:51:00.328Z,75.29
2023-05-14T06:53:26.679Z,76.24
2023-05-14T06:55:53.029Z,76.67
2023-05-14T06:58:19.434Z,76.74
2023-05-14T07:00:46.310Z,75.31
2023-05-14T07:03:12.977Z,75.65
2023-05-14T07:05:39.621Z,74.83
2023-05-14T07:08:06.500Z,74.42
2023-05-14T07:10:33.985Z,74.50
2023-05-14T07:13:03.018Z,74.21
2023-05-14T07:15:29.391Z,73.92
2023-05-14T07:17:57.898Z,73.68
2023-05-14T07:20:24.688Z,76.32
2023-05-14T07:22:51.384Z,77.31
2023-05-14T07:25:20.030Z,75.41
2023-05-14T07:27:46.372Z,75.06
2023-05-14T07:30:13.177Z,73.94
2023-05-14T07:32:40.145Z,76.18
2023-05-14T07:35:06.792Z,75.83
2023-05-14T07:37:33.152Z,75.21
2023-05-14T07:39:59.598Z,77.15
2023-05-14T07:42:35.283Z,77.74
2023-05-14T07:45:03.439Z,78.59
2023-05-14T07:47:29.981Z,76.37
2023-05-14T07:49:57.197Z,73.74
2023-05-14T07:52:23.582Z,73.88
2023-05-14T07:54:50.658Z,72.45
2023-05-14T07:57:17.210Z,74.83
2023-05-14T07:59:43.663Z,72.90
2023-05-14T08:02:12.783Z,70.39
2023-05-14T08:04:40.773Z,72.43
2023-05-14T08:07:08.168Z,71.66
2023-05-14T08:09:35.540Z,71.91
2023-05-14T08:12:13.401Z,72.56
2023-05-14T08:14:42.897Z,69.68
2023-05-14T08:17:09.409Z,71.21
2023-05-14T08:19:36.033Z,71.78
2023-05-14T08:22:04.930Z,73.17
2023-05-14T08:24:31.472Z,70.50
2023-05-14T08:26:57.925Z,68.79
2023-05-14T08:29:24.266Z,66.97
2023-05-14T08:31:50.973Z,66.43
2023-05-14T08:34:19.498Z,64.46
2023-05-14T08:36:46.119Z,61.78
2023-05-14T08:39:15.375Z,63.88
2023-05-14T08:41:42.105Z,62.56
2023-05-14T08:44:09.532Z,62.97
2023-05-14T08:46:35.888Z,63.50
2023-05-14T08:49:02.499Z,64.53
2023-05-14T08:51:30.216Z,63.21
2023-05-14T08:53:56.691Z,64.15
2023-05-14T08:56:24.661Z,64.46
2023-05-14T08:58:51.242Z,62.71
2023-05-14T09:01:17.852Z,61.84
2023-05-14T09:03:44.543Z,61.71
2023-05-14T09:06:10.970Z,62.11
2023-05-14T09:08:37.316Z,61.22
2023-05-14T09:11:03.664Z,60.74
2023-05-14T09:13:30.122Z,60.35
2023-05-14T09:15:57.545Z,63.38
2023-05-14T09:18:23.997Z,63.04
2023-05-14T09:20:52.711Z,61.58
2023-05-14T09:23:19.193Z,61.27
2023-05-14T09:25:46.092Z,61.11
2023-05-14T09:28:12.965Z,61.88
2023-05-14T09:30:41.826Z,60.58
2023-05-14T09:33:08.692Z,61.52
2023-05-14T09:35:35.221Z,61.81
2023-05-14T09:38:01.623Z,60.85
2023-05-14T09:40:28.366Z,59.24
2023-05-14T09:42:55.046Z,58.25
2023-05-14T09:45:21.652Z,57.27
2023-05-14T09:47:48.843Z,58.00
2023-05-14T09:50:15.299Z,56.77
2023-05-14T09:52:42.099Z,55.66
2023-05-14T09:55:09.972Z,55.52
2023-05-14T09:57:36.361Z,56.94
2023-05-14T10:00:03.723Z,57.57
2023-05-14T10:02:30.108Z,57.74
2023-05-14T10:04:56.480Z,56.71
2023-05-14T10:07:22.982Z,56.14
2023-05-14T10:09:49.619Z,57.12
2023-05-14T10:12:16.536Z,54.67
2023-05-14T10:14:43.926Z,56.39
2023-05-14T10:17:10.438Z,55.77
2023-05-14T10:19:37.107Z,53.79
2023-05-14T10:22:03.537Z,53.40
2023-05-14T10:24:29.917Z,53.47
2023-05-14T10:26:56.425Z,53.46
2023-05-14T10:29:23.986Z,52.00
2023-05-14T10:31:50.383Z,52.61
2023-05-14T10:34:16.840Z,53.28
2023-05-14T10:36:43.226Z,55.03
2023-05-14T10:39:09.590Z,54.17
2023-05-14T10:41:36.297Z,51.51
2023-05-14T10:44:14.546Z,50.10
2023-05-14T10:46:40.895Z,51.49
2023-05-14T10:49:09.330Z,47.20
2023-05-14T10:51:36.467Z,50.22
2023-05-14T10:54:03.892Z,51.06
2023-05-14T10:56:30.277Z,51.05
2023-05-14T10:58:56.643Z,48.84
2023-05-14T11:01:24.297Z,50.89
2023-05-14T11:03:52.237Z,49.24
2023-05-14T11:06:18.705Z,53.16
2023-05-14T11:08:48.242Z,49.81
2023-05-14T11:11:14.628Z,52.67
2023-05-14T11:13:41.027Z,48.98
2023-05-14T11:18:38.901Z,50.95
2023-05-14T11:21:06.532Z,52.64
2023-05-14T11:23:33.055Z,53.85
2023-05-14T11:25:59.925Z,53.16
2023-05-14T11:28:26.927Z,52.80
2023-05-14T11:30:53.261Z,53.10
2023-05-14T11:33:19.795Z,52.78
2023-05-14T11:35:46.165Z,53.25
2023-05-14T11:38:12.618Z,56.64
2023-05-14T11:40:39.140Z,56.00
2023-05-14T11:43:05.640Z,56.00
2023-05-14T11:45:32.272Z,53.42
2023-05-14T11:47:58.717Z,54.72
2023-05-14T11:50:25.368Z,55.22
2023-05-14T11:52:54.352Z,55.25
2023-05-14T11:55:20.686Z,55.33
2023-05-14T11:57:47.046Z,55.46
2023-05-14T12:00:18.824Z,53.15
2023-05-14T12:02:45.294Z,55.26
2023-05-14T12:05:13.749Z,54.56
2023-05-14T12:07:40.379Z,55.59
2023-05-14T12:10:06.863Z,53.67
2023-05-14T12:12:33.295Z,54.38
2023-05-14T12:15:00.210Z,50.73
2023-05-14T12:17:27.025Z,49.45
2023-05-14T12:19:53.431Z,52.11
2023-05-14T12:22:22.490Z,49.20
2023-05-14T12:24:48.862Z,49.16
2023-05-14T12:27:15.255Z,48.62
2023-05-14T12:29:41.968Z,50.84
2023-05-14T12:32:08.346Z,49.21
2023-05-14T12:34:37.679Z,49.85
2023-05-14T12:37:04.544Z,50.48
2023-05-14T12:39:30.933Z,51.86
2023-05-14T12:41:57.328Z,47.72
2023-05-14T12:44:23.797Z,47.33
2023-05-14T12:46:52.058Z,47.30
2023-05-14T12:49:18.397Z,47.38
2023-05-14T12:51:44.732Z,47.36
2023-05-14T12:54:15.160Z,48.11
2023-05-14T12:56:43.057Z,46.32
2023-05-14T12:59:09.593Z,47.86
2023-05-14T13:01:36.722Z,48.36
2023-05-14T13:04:06.558Z,50.43
2023-05-14T13:06:33.126Z,46.98
2023-05-14T13:09:00.844Z,48.39
2023-05-14T13:11:28.039Z,51.43
2023-05-14T13:13:54.435Z,50.91
2023-05-14T13:16:20.887Z,47.24
2023-05-14T13:18:48.276Z,48.99
2023-05-14T13:21:15.072Z,50.21
2023-05-14T13:23:41.832Z,51.26
2023-05-14T13:26:09.266Z,50.38
2023-05-14T13:28:39.252Z,49.44
2023-05-14T13:31:06.397Z,49.81
2023-05-14T13:33:32.857Z,49.18
2023-05-14T13:35:59.293Z,47.53
2023-05-14T13:38:26.678Z,45.82
2023-05-14T13:40:54.593Z,46.59
2023-05-14T13:43:24.517Z,46.98
2023-05-14T13:45:50.965Z,45.60
2023-05-14T13:48:18.321Z,45.99
2023-05-14T13:50:44.774Z,43.58
2023-05-14T13:53:11.244Z,46.04
2023-05-14T13:55:40.000Z,42.90
2023-05-14T13:58:08.713Z,44.48
2023-05-14T14:00:37.920Z,49.17
2023-05-14T14:03:04.380Z,47.31
2023-05-14T14:05:30.902Z,46.59
2023-05-14T14:08:01.156Z,44.56
2023-05-14T14:10:34.770Z,44.73
2023-05-14T14:13:01.288Z,45.36
2023-05-14T14:15:28.989Z,45.58
2023-05-14T14:17:55.826Z,46.22
2023-05-14T14:20:24.289Z,45.41
2023-05-14T14:22:50.688Z,46.25
2023-05-14T14:25:17.046Z,46.92
2023-05-14T14:27:43.382Z,47.67
2023-05-14T14:30:10.087Z,50.05
2023-05-14T14:32:36.513Z,49.37
2023-05-14T14:35:03.649Z,50.67
2023-05-14T14:37:32.306Z,51.10
2023-05-14T14:40:01.017Z,51.98
2023-05-14T14:42:27.899Z,49.51
2023-05-14T14:44:55.065Z,51.28
2023-05-14T14:47:21.471Z,50.21
2023-05-14T14:49:48.350Z,49.36
2023-05-14T14:52:17.277Z,48.97
2023-05-14T14:54:45.911Z,49.39
2023-05-14T14:57:13.395Z,48.88
2023-05-14T14:59:39.798Z,48.83
2023-05-14T15:02:08.363Z,50.61
2023-05-14T15:04:34.730Z,50.51
2023-05-14T15:07:03.419Z,50.07
2023-05-14T15:09:30.023Z,48.92
2023-05-14T15:12:03.833Z,46.91
2023-05-14T15:14:34.369Z,48.32
2023-05-14T15:17:00.942Z,49.49
2023-05-14T15:19:27.349Z,49.39
2023-05-14T15:21:53.840Z,49.98
2023-05-14T15:24:20.284Z,49.47
2023-05-14T15:26:46.701Z,50.02
2023-05-14T15:29:13.397Z,49.26
2023-05-14T15:31:40.855Z,47.91
2023-05-14T15:34:07.292Z,47.53
2023-05-14T15:36:34.713Z,48.54
2023-05-14T15:39:01.050Z,47.38
2023-05-14T15:41:27.977Z,48.07
2023-05-14T15:43:54.352Z,47.88
2023-05-14T15:46:21.087Z,47.95
2023-05-14T15:48:48.544Z,46.98
2023-05-14T15:51:15.111Z,45.75
2023-05-14T15:53:41.475Z,46.85
2023-05-14T15:56:09.231Z,47.01
2023-05-14T15:58:35.677Z,46.29
2023-05-14T16:01:02.109Z,47.47
2023-05-14T16:03:28.708Z,47.28
2023-05-14T16:05:55.124Z,48.23
2023-05-14T16:08:21.507Z,48.66
2023-05-14T16:10:48.087Z,48.94
2023-05-14T16:13:17.127Z,48.78
2023-05-14T16:15:43.473Z,50.12
2023-05-14T16:18:11.196Z,49.70
2023-05-14T16:20:37.674Z,51.25
2023-05-14T16:23:04.075Z,50.70
2023-05-14T16:25:30.477Z,51.44
2023-05-14T16:27:59.165Z,51.48
2023-05-14T16:30:25.705Z,51.56
2023-05-14T16:32:52.285Z,52.75
2023-05-14T16:35:21.206Z,52.16
2023-05-14T16:37:47.591Z,52.98
2023-05-14T16:40:16.119Z,54.72
2023-05-14T16:42:42.533Z,56.86
2023-05-14T16:45:08.887Z,55.61
2023-05-14T16:47:35.322Z,56.08
2023-05-14T16:50:01.706Z,57.77
2023-05-14T16:52:30.181Z,58.64
2023-05-14T16:54:56.528Z,59.64
2023-05-14T16:57:23.623Z,59.78
2023-05-14T16:59:52.685Z,60.19
2023-05-14T17:02:20.143Z,62.76
2023-05-14T17:04:46.822Z,61.94
2023-05-14T17:07:13.230Z,61.27
2023-05-14T17:09:40.058Z,60.71
2023-05-14T17:12:06.673Z,61.61
2023-05-14T17:14:33.290Z,61.99
2023-05-14T17:16:59.668Z,58.99
2023-05-14T17:19:26.056Z,57.92
2023-05-14T17:21:52.464Z,58.79
2023-05-14T17:24:18.817Z,56.45
2023-05-14T17:26:45.165Z,57.70
2023-05-14T17:29:11.545Z,58.12
2023-05-14T17:31:38.351Z,58.01
2023-05-14T17:34:04.802Z,57.66
2023-05-14T17:36:31.154Z,57.63
2023-05-14T17:38:57.837Z,56.60
2023-05-14T17:41:24.211Z,56.69
2023-05-14T17:43:50.592Z,56.29
2023-05-14T17:46:17.034Z,56.52
2023-05-14T17:48:43.551Z,56.38
2023-05-14T17:51:10.782Z,56.07
2023-05-14T17:53:37.342Z,55.16
2023-05-14T17:56:04.242Z,56.72
2023-05-14T17:58:33.062Z,57.10
2023-05-14T18:00:59.593Z,56.82
2023-05-14T18:03:26.112Z,59.06
2023-05-14T18:05:53.503Z,58.50
2023-05-14T18:08:20.069Z,58.13
2023-05-14T18:10:46.465Z,60.58
2023-05-14T18:13:12.942Z,62.81
2023-05-14T18:15:39.277Z,65.78
2023-05-14T18:18:05.829Z,66.25
2023-05-14T18:20:33.521Z,68.10
2023-05-14T18:23:01.806Z,70.16
2023-05-14T18:25:28.663Z,72.01
2023-05-14T18:27:55.006Z,75.41
2023-05-14T18:30:21.334Z,76.99
2023-05-14T18:32:50.704Z,76.87
2023-05-14T18:35:17.111Z,77.17
2023-05-14T18:37:43.837Z,77.16
2023-05-14T18:40:10.175Z,77.48
2023-05-14T18:42:36.506Z,77.73
2023-05-14T18:45:03.355Z,77.79
2023-05-14T18:47:30.454Z,77.17
2023-05-14T18:49:57.477Z,76.86
2023-05-14T18:52:23.846Z,76.45
2023-05-14T18:54:50.469Z,76.11
2023-05-14T18:57:16.815Z,75.92
2023-05-14T18:59:43.217Z,75.97
2023-05-14T19:02:09.566Z,77.63
2023-05-14T19:04:47.858Z,78.14
2023-05-14T19:07:17.346Z,77.19
2023-05-14T19:09:43.678Z,77.40
2023-05-14T19:12:10.084Z,77.93
2023-05-14T19:14:36.484Z,77.62
2023-05-14T19:17:03.045Z,77.51
2023-05-14T19:19:29.393Z,77.40
2023-05-14T19:21:55.765Z,76.25
2023-05-14T19:24:22.108Z,76.78
2023-05-14T19:26:48.590Z,76.93
2023-05-14T19:29:17.225Z,76.64
2023-05-14T19:31:43.707Z,76.02
2023-05-14T19:34:10.821Z,76.10
2023-05-14T19:36:39.942Z,76.28
2023-05-14T19:39:06.673Z,76.66
2023-05-14T19:41:33.063Z,76.56
2023-05-14T19:43:59.485Z,76.36
2023-05-14T19:46:27.346Z,76.96
2023-05-14T19:48:54.787Z,76.77
2023-05-14T19:51:22.170Z,76.61
2023-05-14T19:53:48.625Z,77.14
2023-05-14T19:56:15.084Z,76.31
2023-05-14T19:58:41.467Z,76.97
2023-05-14T20:01:09.923Z,76.53
2023-05-14T20:03:36.372Z,75.91
2023-05-14T20:06:02.830Z,75.94
2023-05-14T20:08:30.606Z,76.51
2023-05-14T20:10:57.061Z,75.51
2023-05-14T20:13:25.143Z,77.76
2023-05-14T20:15:52.803Z,79.30
2023-05-14T20:18:22.372Z,79.31
2023-05-14T20:20:48.893Z,79.35
2023-05-14T20:23:16.141Z,79.63
2023-05-14T20:25:42.775Z,79.98
2023-05-14T20:28:09.485Z,80.72
2023-05-14T20:30:35.951Z,80.46
2023-05-14T20:33:02.447Z,80.63
2023-05-14T20:35:28.839Z,80.75
2023-05-14T20:37:55.234Z,80.35
2023-05-14T20:40:21.838Z,80.49
2023-05-14T20:42:48.308Z,80.16
2023-05-14T20:45:14.988Z,79.97
2023-05-14T20:47:41.449Z,79.45
2023-05-14T20:50:07.801Z,79.22
2023-05-14T20:52:34.387Z,79.24
2023-05-14T20:55:03.949Z,79.04
2023-05-14T20:57:31.519Z,78.92
2023-05-14T20:59:59.297Z,78.43
2023-05-14T21:02:26.045Z,78.22
2023-05-14T21:04:52.523Z,78.05
2023-05-14T21:07:19.192Z,79.16
2023-05-14T21:09:45.569Z,79.82
2023-05-14T21:12:12.088Z,79.36
2023-05-14T21:14:38.909Z,79.09
2023-05-14T21:17:05.780Z,79.20
